May 17, 2022

Time Code Weather Temp. Visibility Clouds Wind METAR/SPECI
3:25 pm
V
64 °F 6¼ mi+ - 010°   010° 5 kt METAR EHVL 171325Z AUTO 01005KT 340V050 9999 NCD 18/13 Q1020 BLU RMK CB INFO NOT AVBL
2:55 pm
V
64 °F 6¼ mi+ - 360°   360° 5 kt METAR EHVL 171255Z AUTO 36005KT 9999 SCT062 18/13 Q1020 BLU
2:25 pm
V
64 °F 6¼ mi+ - 320°   320° 4 kt METAR EHVL 171225Z AUTO 32004KT 9999 SCT064 18/13 Q1020 BLU
1:55 pm
V
63 °F 6¼ mi+ - 320°   320° 4 kt METAR EHVL 171155Z AUTO 32004KT 280V360 9999 FEW370 17/12 Q1020 BLU
1:25 pm
V
64 °F 6¼ mi+ 25,000 ft 300°   300° 4 kt METAR EHVL 171125Z AUTO 30004KT 260V340 9999 BKN250 18/12 Q1020 BLU
12:55 pm
V
63 °F 6¼ mi+ 35,000 ft 270°   270° 6 kt METAR EHVL 171055Z AUTO 27006KT 9999 OVC350 17/12 Q1020 BLU
12:25 pm
V
64 °F 6¼ mi+ 35,000 ft 270°   270° 7 kt METAR EHVL 171025Z AUTO 27007KT 9999 OVC350 18/12 Q1020 BLU
11:55 am
V
63 °F 6¼ mi+ - 260°   260° 8 kt METAR EHVL 170955Z AUTO 26008KT 9999 NCD 17/12 Q1020 BLU
11:25 am
V
63 °F 6¼ mi+ - 240°   240° 8 kt METAR EHVL 170925Z AUTO 24008KT 9999 NCD 17/12 Q1020 BLU
10:55 am
V
63 °F 6¼ mi+ - 250°   250° 9 kt METAR EHVL 170855Z AUTO 25009KT 9999 SCT370 17/12 Q1020 BLU
10:25 am
V
63 °F 6¼ mi+ 37,000 ft 260°   260° 8 kt METAR EHVL 170825Z AUTO 26008KT 9999 BKN370 17/12 Q1020 BLU
9:55 am
V
61 °F 6¼ mi+ - 260°   260° 9 kt METAR EHVL 170755Z AUTO 26009KT 9999 SCT380 16/12 Q1020 BLU
9:25 am
V
59 °F 6¼ mi+ 37,000 ft 250°   250° 12 kt METAR EHVL 170725Z AUTO 25012KT 9999 BKN370 15/12 Q1020 BLU
8:55 am
V
59 °F 6¼ mi+ 15,000 ft 250°   250° 12 kt METAR EHVL 170655Z AUTO 25012KT 9999 OVC150 15/12 Q1020 BLU
8:25 am
V
59 °F 6¼ mi+ 15,000 ft 250°   250° 12 kt METAR EHVL 170625Z AUTO 25012KT 9999 OVC150 15/12 Q1019 BLU
7:55 am
V
57 °F 6¼ mi+ 15,000 ft 240°   240° 12 kt METAR EHVL 170555Z AUTO 24012KT 9999 OVC150 14/12 Q1019 BLU
7:25 am
V
57 °F 6¼ mi+ 15,000 ft 250°   250° 12 kt METAR EHVL 170525Z AUTO 25012KT 9999 OVC150 14/12 Q1019 BLU
6:55 am
V
57 °F 6¼ mi+ 15,000 ft 250°   250° 11 kt METAR EHVL 170455Z AUTO 25011KT 9999 OVC150 14/12 Q1018 BLU
6:25 am
V
55 °F 6¼ mi+ 16,000 ft 240°   240° 11 kt METAR EHVL 170425Z AUTO 24011KT 9999 OVC160 13/12 Q1018 BLU
5:55 am
V
55 °F 6¼ mi+ 16,000 ft 240°   240° 12 kt METAR EHVL 170355Z AUTO 24012KT 9999 OVC160 13/12 Q1018 BLU
5:25 am
V
57 °F 6¼ mi+ 17,000 ft 250°   250° 14 kt METAR EHVL 170325Z AUTO 25014KT 9999 FEW033 OVC170 14/12 Q1018 BLU
4:55 am
V
57 °F 6¼ mi+ 3,400 ft 250°   250° 14 kt METAR EHVL 170255Z AUTO 25014KT 9999 BKN034 OVC160 14/12 Q1018 BLU
4:25 am
V
57 °F 6¼ mi+ - 240°   240° 14 kt METAR EHVL 170225Z AUTO 24014KT 9999 SCT037 SCT340 14/12 Q1018 BLU
3:55 am
V
57 °F 6¼ mi+ - 240°   240° 16 kt METAR EHVL 170155Z AUTO 24016KT 9999 NCD 14/11 Q1018 BLU
3:25 am
V
57 °F 6¼ mi+ 22,000 ft 240°   240° 15 kt METAR EHVL 170125Z AUTO 24015KT 9999 OVC220 14/11 Q1018 BLU
2:55 am
V
57 °F 6¼ mi+ 24,000 ft 240°   240° 15 kt METAR EHVL 170055Z AUTO 24015KT 9999 BKN240 BKN300 14/11 Q1018 BLU
2:25 am
V
57 °F 6¼ mi+ 30,000 ft 240°   240° 15 kt METAR EHVL 170025Z AUTO 24015KT 9999 BKN300 14/12 Q1018 BLU
1:55 am
V
57 °F 6¼ mi+ - 240°   240° 16 kt METAR EHVL 162355Z AUTO 24016KT 9999 NCD 14/12 Q1018 BLU
1:25 am
V
57 °F 6¼ mi+ - 230°   230° 13 kt METAR EHVL 162325Z AUTO 23013KT 9999 NCD 14/12 Q1018 BLU
12:55 am
V
57 °F 6¼ mi+ 27,000 ft 230°   230° 12 kt METAR EHVL 162255Z AUTO 23012KT 9999 OVC270 14/12 Q1017 BLU
12:25 am
V
57 °F 6¼ mi+ - 230°   230° 12 kt METAR EHVL 162225Z AUTO 23012KT 9999 FEW300 14/12 Q1017 BLU

May 16, 2022

Time Code Weather Temp. Visibility Clouds Wind METAR/SPECI
11:55 pm
V
57 °F 6¼ mi+ - 230°   230° 13 kt METAR EHVL 162155Z AUTO 23013KT 9999 NCD 14/12 Q1017 BLU
11:25 pm
V
57 °F 6¼ mi+ - 230°   230° 15 kt METAR EHVL 162125Z AUTO 23015KT 9999 NCD 14/12 Q1017 BLU
10:55 pm
V
57 °F 6¼ mi+ - 230°   230° 14 kt METAR EHVL 162055Z AUTO 23014KT 9999 NCD 14/12 Q1017 BLU
10:25 pm
V
57 °F 6¼ mi+ - 230°   230° 16 kt METAR EHVL 162025Z AUTO 23016KT 9999 NCD 14/12 Q1017 BLU
9:55 pm
V
57 °F 6¼ mi+ 3,600 ft 230°   230° 16 kt METAR EHVL 161955Z AUTO 23016KT 9999 BKN036 OVC041 14/12 Q1017 BLU
9:25 pm
V
57 °F 6¼ mi+ 3,700 ft 230°   230° 14 kt METAR EHVL 161925Z AUTO 23014KT 9999 OVC037 14/12 Q1016 BLU
8:55 pm
V
57 °F 6¼ mi+ 3,200 ft 230°   230° 17 kt METAR EHVL 161855Z AUTO 23017KT 9999 BKN032 BKN048 BKN280 14/12 Q1016 BLU
8:25 pm
V
59 °F 6¼ mi+ 3,700 ft 230°   230° 18 kt METAR EHVL 161825Z AUTO 23018KT 9999 FEW033 BKN037 OVC041 15/12 Q1016 BLU
8:10 pm
V
57 °F 6¼ mi+ 3,200 ft 230°   230° 19 kt METAR EHVL 161810Z AUTO 23019KT 9999 FEW021 SCT028 BKN032 14/12 Q1016 BLU
7:55 pm
M
59 °F 6¼ mi+ 1,700 ft 230°   230° 17 kt METAR EHVL 161755Z AUTO 23017KT 9999 BKN017 OVC021 15/12 Q1015 WHT
7:25 pm
M
59 °F 6¼ mi+ 2,200 ft 240°   240° 21 kt METAR EHVL 161725Z AUTO 24021KT 9999 OVC022 15/12 Q1015 WHT
6:55 pm
M
59 °F 6¼ mi+ 2,400 ft 240°   240° 21 kt METAR EHVL 161655Z AUTO 24021KT 9999 OVC024 15/12 Q1015 WHT
6:42 pm
V
59 °F 6¼ mi+ 3,000 ft 240°   240° 21 kt METAR EHVL 161642Z AUTO 24021KT 9999 SCT024 OVC030 15/12 Q1015 WHT
6:25 pm
M
61 °F 6¼ mi+ 2,800 ft 240°   240° 22 kt METAR EHVL 161625Z AUTO 24022KT 9999 OVC028 16/12 Q1015 BLU
5:55 pm
V
61 °F 6¼ mi+ 4,400 ft 230°   230° 21 kt METAR EHVL 161555Z AUTO 23021KT 9999 FEW008 BKN044 OVC051 16/13 Q1015 BLU
5:25 pm
V
61 °F 6¼ mi+ 17,000 ft 230°   230° 22 kt METAR EHVL 161525Z AUTO 23022KT 9999 FEW026 SCT030 OVC170 16/13 Q1015 BLU
5:19 pm
M
61 °F 6¼ mi+ 2,600 ft 230°   230° 22 kt METAR EHVL 161519Z AUTO 23022KT 9999 FEW008 SCT016 BKN026 16/13 Q1015 WHT
5:04 pm
M
61 °F 6¼ mi+ 2,300 ft 220°   220° 22 kt METAR EHVL 161504Z AUTO 22022KT 9999 FEW007 SCT010 OVC023 16/13 Q1015 GRN
4:55 pm
M
61 °F 6¼ mi+ 2,300 ft 220°   220° 23 kt METAR EHVL 161455Z AUTO 22023KT 9999 BKN023 OVC064 16/13 Q1015 WHT
4:30 pm
V
63 °F 6¼ mi+ 7,100 ft 220°   220° 21 kt METAR EHVL 161430Z AUTO 22021KT 9999 FEW007 BKN071 OVC140 17/13 Q1015 BLU
4:26 pm
V
61 °F 6¼ mi+ 7,300 ft 220°   220° 20 kt METAR EHVL 161426Z AUTO 22020KT 9999 SCT007 SCT008 BKN073 16/13 Q1015 GRN
4:25 pm
V
63 °F 6¼ mi+ 14,000 ft 220°   220° 19 kt METAR EHVL 161425Z AUTO 22019KT 9999 SCT006 SCT008 OVC140 17/13 Q1015 YLO
4:13 pm
V
61 °F 6¼ mi+ 13,000 ft 220°   220° 17 kt METAR EHVL 161413Z AUTO 22017KT 9999 FEW008 OVC130 16/13 Q1015 BLU
4:07 pm
I
63 °F 6¼ mi+ 800 ft 220°   220° 18 kt METAR EHVL 161407Z AUTO 22018KT 9999 FEW007 BKN008 OVC110 17/13 Q1015 GRN
4:00 pm
V
61 °F 6¼ mi+ 10,000 ft 220°   220° 18 kt METAR EHVL 161400Z AUTO 22018KT 9999 FEW007 SCT008 OVC100 16/13 Q1015 GRN
3:55 pm
V
61 °F 6¼ mi+ 10,000 ft 220°   220° 18 kt METAR EHVL 161355Z AUTO 22018KT 9999 SCT007 SCT008 OVC100 16/13 Q1014 GRN
3:42 pm
V
61 °F 6¼ mi+ 13,000 ft 220°   220° 19 kt METAR EHVL 161342Z AUTO 22019KT 9999 FEW007 SCT008 OVC130 16/13 Q1015 GRN
3:25 pm
V
61 °F 6¼ mi+ 13,000 ft 220°   220° 19 kt METAR EHVL 161325Z AUTO 22019KT 9999 OVC130 16/13 Q1014 BLU
2:55 pm
V
64 °F 6¼ mi+ 14,000 ft 220°   220° 19 kt METAR EHVL 161255Z AUTO 22019KT 9999 OVC140 18/13 Q1014 BLU
2:25 pm
V
68 °F 6¼ mi+ 18,000 ft 240°   240° 17 kt METAR EHVL 161225Z AUTO 24017KT 9999 BKN180 OVC230 20/13 Q1014 BLU
1:55 pm
V
70 °F 6¼ mi+ 29,000 ft 210°   210° 16 kt METAR EHVL 161155Z AUTO 21016KT 170V240 9999 OVC290 21/13 Q1014 BLU
1:25 pm
V
70 °F 6¼ mi+ 37,000 ft 150°   150° 13 kt METAR EHVL 161125Z AUTO 15013KT 9999 FEW100 BKN370 21/13 Q1014 BLU
12:55 pm
V
70 °F 6¼ mi+ 11,000 ft 150°   150° 14 kt METAR EHVL 161055Z AUTO 15014KT 9999 OVC110 21/13 Q1013 BLU
12:25 pm
V
68 °F 6¼ mi+ 10,000 ft 150°   150° 13 kt METAR EHVL 161025Z AUTO 15013KT 9999 OVC100 20/13 Q1013 BLU
11:55 am
V
68 °F 6¼ mi+ 10,000 ft 140°   140° 12 kt METAR EHVL 160955Z AUTO 14012KT 9999 OVC100 20/13 Q1013 BLU
11:25 am
V
66 °F 6¼ mi+ 10,000 ft 130°   130° 11 kt METAR EHVL 160925Z AUTO 13011KT 9999 OVC100 19/13 Q1013 BLU
10:55 am
V
64 °F 6¼ mi+ 12,000 ft 120°   120° 11 kt METAR EHVL 160855Z AUTO 12011KT 9999 OVC120 18/12 Q1013 BLU
10:25 am
V
63 °F 6¼ mi+ 14,000 ft 120°   120° 12 kt METAR EHVL 160825Z AUTO 12012KT 9999 OVC140 17/12 Q1013 BLU
9:55 am
V
63 °F 6¼ mi+ 15,000 ft 110°   110° 14 kt METAR EHVL 160755Z AUTO 11014KT 9999 OVC150 17/12 Q1013 BLU
9:25 am
V
61 °F 6¼ mi+ 16,000 ft 110°   110° 14 kt METAR EHVL 160725Z AUTO 11014KT 9999 OVC160 16/11 Q1013 BLU
8:55 am
V
61 °F 6¼ mi+ 17,000 ft 100°   100° 15 kt METAR EHVL 160655Z AUTO 10015KT 9999 OVC170 16/11 Q1012 BLU
8:25 am
V
59 °F 6¼ mi+ 16,000 ft 110°   110° 15 kt METAR EHVL 160625Z AUTO 11015KT 9999 OVC160 15/11 Q1013 BLU
7:55 am
V
59 °F 6¼ mi+ 16,000 ft 100°   100° 17 kt METAR EHVL 160555Z AUTO 10017KT 9999 OVC160 15/11 Q1012 BLU
7:25 am
V
57 °F 6¼ mi+ 17,000 ft 100°   100° 15 kt METAR EHVL 160525Z AUTO 10015KT 9999 OVC170 14/10 Q1013 BLU
6:55 am
V
57 °F 6¼ mi+ 16,000 ft 100°   100° 16 kt METAR EHVL 160455Z AUTO 10016KT 9999 OVC160 14/10 Q1013 BLU
6:25 am
V
54 °F 6¼ mi+ 16,000 ft 090°   090° 14 kt METAR EHVL 160425Z AUTO 09014KT 9999 OVC160 12/10 Q1013 BLU
5:55 am
V
54 °F 6¼ mi+ 17,000 ft 090°   090° 13 kt METAR EHVL 160355Z AUTO 09013KT 9999 OVC170 12/10 Q1013 BLU
5:25 am
V
55 °F 6¼ mi+ 18,000 ft 080°   080° 15 kt METAR EHVL 160325Z AUTO 08015KT 9999 BKN180 OVC290 13/10 Q1013 BLU
4:55 am
V
55 °F 6¼ mi+ 19,000 ft 080°   080° 15 kt METAR EHVL 160255Z AUTO 08015KT 9999 OVC190 13/10 Q1014 BLU
4:25 am
V
55 °F 6¼ mi+ 17,000 ft 080°   080° 17 kt METAR EHVL 160225Z AUTO 08017KT 9999 OVC170 13/10 Q1014 BLU
3:55 am
V
57 °F 6¼ mi+ 17,000 ft 080°   080° 17 kt METAR EHVL 160155Z AUTO 08017KT 9999 OVC170 14/11 Q1014 BLU
3:25 am
V
57 °F 6¼ mi+ 16,000 ft 080°   080° 16 kt METAR EHVL 160125Z AUTO 08016KT 9999 OVC160 14/11 Q1015 BLU
2:55 am
V
57 °F 6¼ mi+ 17,000 ft 080°   080° 16 kt METAR EHVL 160055Z AUTO 08016KT 9999 OVC170 14/11 Q1015 BLU
2:25 am
V
57 °F 6¼ mi+ 34,000 ft 080°   080° 19 kt METAR EHVL 160025Z AUTO 08019KT 9999 FEW180 OVC340 14/11 Q1015 BLU
1:55 am
V
57 °F 6¼ mi+ 18,000 ft 080°   080° 18 kt METAR EHVL 152355Z AUTO 08018KT 9999 OVC180 14/11 Q1016 BLU
1:25 am
V
57 °F 6¼ mi+ 17,000 ft 080°   080° 18 kt METAR EHVL 152325Z AUTO 08018KT 9999 OVC170 14/11 Q1016 BLU
12:55 am
V
57 °F 6¼ mi+ 16,000 ft 090°   090° 20 kt METAR EHVL 152255Z AUTO 09020KT 9999 OVC160 14/11 Q1016 BLU
12:25 am
V
57 °F 6¼ mi+ 15,000 ft 090°   090° 20 kt METAR EHVL 152225Z AUTO 09020KT 9999 OVC150 14/11 Q1016 BLU

May 15, 2022

Time Code Weather Temp. Visibility Clouds Wind METAR/SPECI
11:55 pm
V
59 °F 6¼ mi+ 16,000 ft 080°   080° 22 kt METAR EHVL 152155Z AUTO 08022KT 9999 OVC160 15/12 Q1016 BLU
11:25 pm
V
57 °F 6¼ mi+ 16,000 ft 080°   080° 19 kt METAR EHVL 152125Z AUTO 08019KT 9999 OVC160 14/12 Q1017 BLU
10:55 pm
V
57 °F 6¼ mi+ 17,000 ft 070°   070° 20 kt METAR EHVL 152055Z AUTO 07020KT 9999 OVC170 14/12 Q1017 BLU
10:25 pm
V
57 °F 6¼ mi+ 17,000 ft 070°   070° 20 kt METAR EHVL 152025Z AUTO 07020KT 9999 OVC170 14/11 Q1017 BLU
9:55 pm
V
57 °F 6¼ mi+ 17,000 ft 070°   070° 20 kt METAR EHVL 151955Z AUTO 07020KT 9999 OVC170 14/11 Q1017 BLU
9:25 pm
V
57 °F 6¼ mi+ 17,000 ft 070°   070° 20 kt METAR EHVL 151925Z AUTO 07020KT 9999 OVC170 14/11 Q1017 BLU
8:55 pm
V
57 °F 6¼ mi+ 16,000 ft 070°   070° 22 kt METAR EHVL 151855Z AUTO 07022KT 9999 OVC160 14/11 Q1017 BLU
8:25 pm
V
59 °F 6¼ mi+ 16,000 ft 070°   070° 21 kt METAR EHVL 151825Z AUTO 07021KT 9999 OVC160 15/11 Q1017 BLU
7:55 pm
V
59 °F 6¼ mi+ 16,000 ft 070°   070° 20 kt METAR EHVL 151755Z AUTO 07020KT 9999 OVC160 15/11 Q1017 BLU
7:25 pm
V
59 °F 6¼ mi+ 14,000 ft 070°   070° 21 kt METAR EHVL 151725Z AUTO 07021KT 9999 OVC140 15/10 Q1017 BLU
6:55 pm
V
61 °F 6¼ mi+ 9,700 ft 060°   060° 21 kt METAR EHVL 151655Z AUTO 06021KT 9999 FEW071 SCT079 BKN097 16/10 Q1017 BLU
6:25 pm
V
61 °F 6¼ mi+ 11,000 ft 060°   060° 20 kt METAR EHVL 151625Z AUTO 06020KT 9999 OVC110 16/10 Q1018 BLU
5:55 pm
V
63 °F 6¼ mi+ 12,000 ft 070°   070° 22 kt METAR EHVL 151555Z AUTO 07022KT 9999 OVC120 17/10 Q1018 BLU
5:25 pm
V
63 °F 6¼ mi+ 14,000 ft 070°   070° 22 kt METAR EHVL 151525Z AUTO 07022KT 9999 OVC140 17/11 Q1018 BLU
4:55 pm
V
63 °F 6¼ mi+ 16,000 ft 070°   070° 20 kt METAR EHVL 151455Z AUTO 07020KT 9999 OVC160 17/10 Q1019 BLU
4:25 pm
V
64 °F 6¼ mi+ 16,000 ft 070°   070° 20 kt METAR EHVL 151425Z AUTO 07020KT 9999 BKN160 OVC220 18/10 Q1019 BLU
3:55 pm
V
64 °F 6¼ mi+ 22,000 ft 060°   060° 19 kt METAR EHVL 151355Z AUTO 06019KT 9999 OVC220 18/10 Q1019 BLU
Older data

Download our app

Easy access to all aviation weather on your mobile phone and tablet.
With many features not available on the website, like offline support and a personal airport list.